KNPA/NPA METAR and TAF weather

Enter ICAO airport designator
Station Type Date Time Source
KNPA METAR 2021/09/24 06:56 UTC NOAA

KNPA 240656Z AUTO 36005KT 10SM CLR 17/12 A3003 RMK AO2 SLP170 T01670122 $


Station Type Date Time Source
KNPA Decoded METAR 2021/09/24 06:56 UTC NOAA

Pensacola, Naval Air Station, FL, United States (KNPA) 30-21-22N 087-19-24W 10M
Sep 24, 2021 - 02:56 AM EDT / 2021.09.24 0656 UTC
Wind: from the N (360 degrees) at 6 MPH (5 KT):0
Visibility: 10 mile(s):0
Sky conditions: clear
Temperature: 62.1 F (16.7 C)
Dew Point: 54.0 F (12.2 C)
Relative Humidity: 74%
Pressure (altimeter): 30.03 in. Hg (1016 hPa)
ob: KNPA 240656Z AUTO 36005KT 10SM CLR 17/12 A3003 RMK AO2 SLP170 T01670122
cycle: 7

Station Type Date Time Source
KNPA TAF 2021/09/23 23:39 UTC NOAA

TAF KNPA 2323/2423 36007KT 9999 SKC QNH2994INS
FM241400 03007KT 9999 SKC QNH3003INS
FM242000 17007KT 9999 FEW040 QNH2996INS AUTOMATED SENSOR METWATCH 2403 TIL 22411 T10/2412Z T27/2420Z FN20034

Example: see airport list